SBPA/POA METAR and TAF weather

Enter ICAO airport designator
Station Type Date Time Source
SBPA METAR 2019/06/16 21:00 UTC NOAA

SBPA 162100Z 17004KT CAVOK 23/20 Q1021


Station Type Date Time Source
SBPA Decoded METAR 2019/06/16 21:00 UTC NOAA

Porto Alegre Aero-Porto , Brazil (SBPA) 30-00S 051-11W 3M
Jun 16, 2019 - 05:00 PM EDT / 2019.06.16 2100 UTC
Wind: from the S (170 degrees) at 5 MPH (4 KT):0
Visibility: greater than 7 mile(s):0
Temperature: 73 F (23 C)
Dew Point: 68 F (20 C)
Relative Humidity: 83%
Pressure (altimeter): 30.15 in. Hg (1021 hPa)
ob: SBPA 162100Z 17004KT CAVOK 23/20 Q1021
cycle: 21

Station Type Date Time Source
SBPA TAF 2019/06/16 18:37 UTC NOAA

TAF SBPA 161530Z 1618/1718 10006KT CAVOK TX30/1618Z TN17/1708Z
RMK PE B

Example: see airport list